createdAt,value
2019-06-26T00:02:21.718Z,7.45
2019-06-26T00:04:53.053Z,8.20
2019-06-26T00:07:24.319Z,7.15
2019-06-26T00:09:55.694Z,7.67
2019-06-26T00:12:27.033Z,7.90
2019-06-26T00:14:58.285Z,8.03
2019-06-26T00:17:29.632Z,7.75
2019-06-26T00:20:00.860Z,7.80
2019-06-26T00:22:32.225Z,8.38
2019-06-26T00:25:04.155Z,8.10
2019-06-26T00:27:36.075Z,7.62
2019-06-26T00:30:08.564Z,7.62
2019-06-26T00:32:39.926Z,8.18
2019-06-26T00:35:11.340Z,7.55
2019-06-26T00:37:42.655Z,8.08
2019-06-26T00:40:15.397Z,7.72
2019-06-26T00:42:46.689Z,7.47
2019-06-26T00:45:18.053Z,7.58
2019-06-26T00:47:49.342Z,7.87
2019-06-26T00:50:20.590Z,7.15
2019-06-26T00:52:52.870Z,7.58
2019-06-26T00:55:24.275Z,7.15
2019-06-26T00:57:55.494Z,7.90
2019-06-26T01:00:32.791Z,7.22
2019-06-26T01:03:04.208Z,7.50
2019-06-26T01:05:35.539Z,7.65
2019-06-26T01:08:06.803Z,7.50
2019-06-26T01:10:38.133Z,7.85
2019-06-26T01:13:09.406Z,7.58
2019-06-26T01:15:40.810Z,7.35
2019-06-26T01:18:12.175Z,7.50
2019-06-26T01:20:43.582Z,7.53
2019-06-26T01:23:15.223Z,7.45
2019-06-26T01:25:46.485Z,7.55
2019-06-26T01:28:17.883Z,6.92
2019-06-26T01:30:49.166Z,7.42
2019-06-26T01:33:20.507Z,7.95
2019-06-26T01:35:51.773Z,8.00
2019-06-26T01:38:23.017Z,7.22
2019-06-26T01:40:54.317Z,7.62
2019-06-26T01:43:25.721Z,8.20
2019-06-26T01:45:57.009Z,7.97
2019-06-26T01:48:28.273Z,7.28
2019-06-26T01:50:59.547Z,8.38
2019-06-26T01:53:30.778Z,8.53
2019-06-26T01:56:02.183Z,7.53
2019-06-26T01:58:33.584Z,8.30
2019-06-26T02:01:04.809Z,8.33
2019-06-26T02:03:36.170Z,7.97
2019-06-26T02:06:07.506Z,7.92
2019-06-26T02:08:38.766Z,8.00
2019-06-26T02:11:10.190Z,7.62
2019-06-26T02:13:41.444Z,8.35
2019-06-26T02:16:12.763Z,7.97
2019-06-26T02:18:48.267Z,8.40
2019-06-26T02:21:19.601Z,7.95
2019-06-26T02:23:50.945Z,8.55
2019-06-26T02:26:22.221Z,8.40
2019-06-26T02:28:53.621Z,8.58
2019-06-26T02:31:25.042Z,8.65
2019-06-26T02:33:56.331Z,8.10
2019-06-26T02:36:27.563Z,8.95
2019-06-26T02:38:58.895Z,8.88
2019-06-26T02:41:30.159Z,8.35
2019-06-26T02:44:01.457Z,8.90
2019-06-26T02:46:32.778Z,8.83
2019-06-26T02:49:04.070Z,9.05
2019-06-26T02:51:35.452Z,8.33
2019-06-26T02:56:42.104Z,9.08
2019-06-26T02:59:13.393Z,9.25
2019-06-26T03:01:44.777Z,8.63
2019-06-26T03:04:16.012Z,9.10
2019-06-26T03:06:47.295Z,9.58
2019-06-26T03:09:19.745Z,9.50
2019-06-26T03:11:51.064Z,9.90
2019-06-26T03:14:22.377Z,9.40
2019-06-26T03:16:53.734Z,10.18
2019-06-26T03:19:24.994Z,10.10
2019-06-26T03:21:56.400Z,10.25
2019-06-26T03:24:27.812Z,9.20
2019-06-26T03:26:59.121Z,10.90
2019-06-26T03:29:30.397Z,10.15
2019-06-26T03:32:01.738Z,9.23
2019-06-26T03:34:33.040Z,9.15
2019-06-26T03:37:04.359Z,11.38
2019-06-26T03:39:35.644Z,10.53
2019-06-26T03:42:06.913Z,10.38
2019-06-26T03:44:38.227Z,9.48
2019-06-26T03:47:09.553Z,11.20
2019-06-26T03:49:40.838Z,10.53
2019-06-26T03:52:12.089Z,10.25
2019-06-26T03:54:43.406Z,9.15
2019-06-26T03:57:14.730Z,10.28
2019-06-26T03:59:46.145Z,10.90
2019-06-26T04:02:17.619Z,10.15
2019-06-26T04:04:48.852Z,11.88
2019-06-26T04:07:20.053Z,10.45
2019-06-26T04:09:51.367Z,10.88
2019-06-26T04:12:22.678Z,9.78
2019-06-26T04:14:53.833Z,11.18
2019-06-26T04:17:26.143Z,11.03
2019-06-26T04:19:57.456Z,10.70
2019-06-26T04:22:28.699Z,10.72
2019-06-26T04:25:00.006Z,11.25
2019-06-26T04:27:32.344Z,11.40
2019-06-26T04:30:03.517Z,11.18
2019-06-26T04:32:34.729Z,11.28
2019-06-26T04:35:06.055Z,10.75
2019-06-26T04:37:37.404Z,11.43
2019-06-26T04:40:08.660Z,12.15
2019-06-26T04:42:39.870Z,11.40
2019-06-26T04:45:11.150Z,12.28
2019-06-26T04:47:42.414Z,12.80
2019-06-26T04:50:13.914Z,11.28
2019-06-26T04:52:45.085Z,12.63
2019-06-26T04:55:16.298Z,11.80
2019-06-26T04:57:47.528Z,11.60
2019-06-26T05:00:21.741Z,11.75
2019-06-26T05:02:51.623Z,12.00
2019-06-26T05:05:35.473Z,12.05
2019-06-26T05:07:55.749Z,11.12
2019-06-26T05:10:26.937Z,11.38
2019-06-26T05:12:58.131Z,12.05
2019-06-26T05:15:29.364Z,11.73
2019-06-26T05:18:00.681Z,11.85
2019-06-26T05:20:31.813Z,11.03
2019-06-26T05:23:03.165Z,11.73
2019-06-26T05:25:34.351Z,11.80
2019-06-26T05:28:08.230Z,11.00
2019-06-26T05:30:38.480Z,11.65
2019-06-26T05:33:09.696Z,11.88
2019-06-26T05:35:40.975Z,11.38
2019-06-26T05:38:12.132Z,11.35
2019-06-26T05:40:43.337Z,11.12
2019-06-26T05:43:14.608Z,12.10
2019-06-26T05:45:45.863Z,11.28
2019-06-26T05:48:17.066Z,11.78
2019-06-26T05:50:48.226Z,11.50
2019-06-26T05:53:19.484Z,11.38
2019-06-26T05:55:50.630Z,10.68
2019-06-26T05:58:21.799Z,11.60
2019-06-26T06:00:53.061Z,10.93
2019-06-26T06:03:24.328Z,10.75
2019-06-26T06:05:55.589Z,11.05
2019-06-26T06:08:26.742Z,14.05
2019-06-26T06:10:58.407Z,10.70
2019-06-26T06:13:29.814Z,12.15
2019-06-26T06:16:00.957Z,11.63
2019-06-26T06:18:32.159Z,12.78
2019-06-26T06:21:03.380Z,11.57
2019-06-26T06:23:34.835Z,11.93
2019-06-26T06:26:06.018Z,12.43
2019-06-26T06:28:37.183Z,11.33
2019-06-26T06:31:08.358Z,11.28
2019-06-26T06:33:39.584Z,11.25
2019-06-26T06:36:10.808Z,11.28
2019-06-26T06:38:41.956Z,10.90
2019-06-26T06:41:13.100Z,11.57
2019-06-26T06:43:44.244Z,12.07
2019-06-26T06:46:15.419Z,10.90
2019-06-26T06:48:46.576Z,11.25
2019-06-26T06:51:17.728Z,11.28
2019-06-26T06:53:48.911Z,11.35
2019-06-26T06:56:20.100Z,11.78
2019-06-26T06:58:51.318Z,11.40
2019-06-26T07:01:22.496Z,11.33
2019-06-26T07:03:53.663Z,11.45
2019-06-26T07:06:24.852Z,10.78
2019-06-26T07:08:56.038Z,10.60
2019-06-26T07:11:28.207Z,12.70
2019-06-26T07:13:59.391Z,11.65
2019-06-26T07:16:30.634Z,10.03
2019-06-26T07:19:01.798Z,12.45
2019-06-26T07:21:32.962Z,12.15
2019-06-26T07:24:04.149Z,10.95
2019-06-26T07:26:35.296Z,11.80
2019-06-26T07:29:06.529Z,10.70
2019-06-26T07:31:38.614Z,10.93
2019-06-26T07:34:09.868Z,10.88
2019-06-26T07:36:41.060Z,10.90
2019-06-26T07:39:12.261Z,11.18
2019-06-26T07:41:43.414Z,11.00
2019-06-26T07:44:14.604Z,11.22
2019-06-26T07:46:45.753Z,11.65
2019-06-26T07:49:16.940Z,11.12
2019-06-26T07:51:48.096Z,10.93
2019-06-26T07:54:19.326Z,11.00
2019-06-26T07:56:50.470Z,10.93
2019-06-26T07:59:21.688Z,10.15
2019-06-26T08:01:52.977Z,11.28
2019-06-26T08:04:24.217Z,10.38
2019-06-26T08:06:55.419Z,10.82
2019-06-26T08:09:26.628Z,10.88
2019-06-26T08:11:57.974Z,10.72
2019-06-26T08:14:29.154Z,11.40
2019-06-26T08:17:00.324Z,10.95
2019-06-26T08:19:31.649Z,10.95
2019-06-26T08:22:02.788Z,10.38
2019-06-26T08:24:34.008Z,10.63
2019-06-26T08:27:05.194Z,10.43
2019-06-26T08:29:36.367Z,10.43
2019-06-26T08:32:07.529Z,10.55
2019-06-26T08:34:39.732Z,10.30
2019-06-26T08:37:10.946Z,11.00
2019-06-26T08:39:42.108Z,11.12
2019-06-26T08:42:13.267Z,11.43
2019-06-26T08:44:44.452Z,10.60
2019-06-26T08:47:15.680Z,10.38
2019-06-26T08:49:46.887Z,11.10
2019-06-26T08:52:18.140Z,10.03
2019-06-26T08:54:49.350Z,11.57
2019-06-26T08:57:20.666Z,10.82
2019-06-26T08:59:51.824Z,11.08
2019-06-26T09:02:23.013Z,11.30
2019-06-26T09:04:54.206Z,10.70
2019-06-26T09:07:25.512Z,10.78
2019-06-26T09:09:56.770Z,11.43
2019-06-26T09:12:27.958Z,10.90
2019-06-26T09:14:59.182Z,9.90
2019-06-26T09:17:30.352Z,10.93
2019-06-26T09:20:01.682Z,11.15
2019-06-26T09:22:32.950Z,11.40
2019-06-26T09:25:20.329Z,9.93
2019-06-26T09:27:37.246Z,9.90
2019-06-26T09:30:08.974Z,10.23
2019-06-26T09:32:40.161Z,10.78
2019-06-26T09:35:11.335Z,9.98
2019-06-26T09:37:42.513Z,9.98
2019-06-26T09:40:14.699Z,10.45
2019-06-26T09:42:45.905Z,10.20
2019-06-26T09:45:17.195Z,10.32
2019-06-26T09:47:48.412Z,10.10
2019-06-26T09:50:19.723Z,10.60
2019-06-26T09:52:50.961Z,10.40
2019-06-26T09:55:22.212Z,10.18
2019-06-26T09:57:53.428Z,10.05
2019-06-26T10:00:24.887Z,10.38
2019-06-26T10:02:56.149Z,11.00
2019-06-26T10:05:27.333Z,11.25
2019-06-26T10:07:58.606Z,10.90
2019-06-26T10:10:29.863Z,10.65
2019-06-26T10:13:01.275Z,11.38
2019-06-26T10:15:32.572Z,10.53
2019-06-26T10:18:03.869Z,10.75
2019-06-26T10:20:36.180Z,10.95
2019-06-26T10:23:07.360Z,10.78
2019-06-26T10:25:38.707Z,11.33
2019-06-26T10:28:10.086Z,11.35
2019-06-26T10:30:41.372Z,12.15
2019-06-26T10:33:12.580Z,10.03
2019-06-26T10:35:43.839Z,11.38
2019-06-26T10:38:15.240Z,11.15
2019-06-26T10:40:46.452Z,11.75
2019-06-26T10:43:17.665Z,11.40
2019-06-26T10:45:48.873Z,12.13
2019-06-26T10:48:20.125Z,11.75
2019-06-26T10:50:58.185Z,11.95
2019-06-26T10:53:24.261Z,11.57
2019-06-26T10:55:55.538Z,10.88
2019-06-26T10:58:26.743Z,11.83
2019-06-26T11:00:58.087Z,11.30
2019-06-26T11:03:29.482Z,11.33
2019-06-26T11:06:00.943Z,10.30
2019-06-26T11:08:32.313Z,11.35
2019-06-26T11:11:03.664Z,11.33
2019-06-26T11:13:34.954Z,11.40
2019-06-26T11:16:06.349Z,12.07
2019-06-26T11:18:37.761Z,11.25
2019-06-26T11:21:08.982Z,10.30
2019-06-26T11:23:40.315Z,11.30
2019-06-26T11:26:11.584Z,10.78
2019-06-26T11:28:42.739Z,11.25
2019-06-26T11:31:14.082Z,11.78
2019-06-26T11:33:45.279Z,11.00
2019-06-26T11:36:16.609Z,11.15
2019-06-26T11:38:47.738Z,12.13
2019-06-26T11:41:19.080Z,11.55
2019-06-26T11:43:50.302Z,10.98
2019-06-26T11:46:21.730Z,12.23
2019-06-26T11:48:52.979Z,11.75
2019-06-26T11:51:24.208Z,10.93
2019-06-26T11:53:58.877Z,11.70
2019-06-26T11:56:29.591Z,10.72
2019-06-26T11:59:00.821Z,11.93
2019-06-26T12:01:32.038Z,14.00
2019-06-26T12:04:03.350Z,13.68
2019-06-26T12:06:34.584Z,12.53
2019-06-26T12:09:07.319Z,12.50
2019-06-26T12:11:38.772Z,11.35
2019-06-26T12:14:10.240Z,16.87
2019-06-26T12:16:41.657Z,11.48
2019-06-26T12:19:12.919Z,10.98
2019-06-26T12:21:44.224Z,13.43
2019-06-26T12:24:15.527Z,12.35
2019-06-26T12:26:47.842Z,11.93
2019-06-26T12:29:19.032Z,11.80
2019-06-26T12:31:50.439Z,11.70
2019-06-26T12:34:21.799Z,13.20
2019-06-26T12:36:53.067Z,11.35
2019-06-26T12:39:24.293Z,10.55
2019-06-26T12:41:55.590Z,10.35
2019-06-26T12:44:26.829Z,10.65
2019-06-26T12:46:58.225Z,11.60
2019-06-26T12:49:29.565Z,12.18
2019-06-26T12:52:00.771Z,12.55
2019-06-26T12:54:33.034Z,11.83
2019-06-26T12:57:04.305Z,12.40
2019-06-26T12:59:35.643Z,11.28
2019-06-26T13:02:06.866Z,11.85
2019-06-26T13:04:38.187Z,12.20
2019-06-26T13:07:10.409Z,12.88
2019-06-26T13:09:41.648Z,12.05
2019-06-26T13:12:12.922Z,11.90
2019-06-26T13:14:44.271Z,12.07
2019-06-26T13:17:15.429Z,12.00
2019-06-26T13:19:46.690Z,11.80
2019-06-26T13:22:18.105Z,10.68
2019-06-26T13:24:49.321Z,10.15
2019-06-26T13:27:20.519Z,10.03
2019-06-26T13:29:51.690Z,9.83
2019-06-26T13:32:23.015Z,10.70
2019-06-26T13:34:54.326Z,10.05
2019-06-26T13:37:25.495Z,10.43
2019-06-26T13:39:56.806Z,10.45
2019-06-26T13:42:28.324Z,11.12
2019-06-26T13:44:59.612Z,10.45
2019-06-26T13:47:30.810Z,11.03
2019-06-26T13:50:02.825Z,10.53
2019-06-26T13:52:34.204Z,11.28
2019-06-26T13:55:05.704Z,10.55
2019-06-26T13:57:36.975Z,10.82
2019-06-26T14:00:08.385Z,10.70
2019-06-26T14:02:39.685Z,10.82
2019-06-26T14:05:11.063Z,10.20
2019-06-26T14:07:42.312Z,10.63
2019-06-26T14:10:13.785Z,10.48
2019-06-26T14:12:45.004Z,9.63
2019-06-26T14:15:16.730Z,10.25
2019-06-26T14:17:48.046Z,10.38
2019-06-26T14:20:19.484Z,10.35
2019-06-26T14:22:51.314Z,10.20
2019-06-26T14:25:22.536Z,10.00
2019-06-26T14:27:53.733Z,9.68
2019-06-26T14:30:27.830Z,10.05
2019-06-26T14:32:57.894Z,10.72
2019-06-26T14:35:29.272Z,10.60
2019-06-26T14:38:00.537Z,10.63
2019-06-26T14:40:31.758Z,10.13
2019-06-26T14:43:02.935Z,10.45
2019-06-26T14:45:34.271Z,10.18
2019-06-26T14:48:05.466Z,9.70
2019-06-26T14:50:36.864Z,9.83
2019-06-26T14:53:08.118Z,10.03
2019-06-26T14:55:39.352Z,9.85
2019-06-26T14:58:10.615Z,9.20
2019-06-26T15:00:42.848Z,9.33
2019-06-26T15:03:14.108Z,8.85
2019-06-26T15:05:45.481Z,8.18
2019-06-26T15:08:16.706Z,7.45
2019-06-26T15:10:48.877Z,7.83
2019-06-26T15:13:20.077Z,8.10
2019-06-26T15:15:54.659Z,8.20
2019-06-26T15:18:25.313Z,8.28
2019-06-26T15:20:56.587Z,7.65
2019-06-26T15:23:27.982Z,7.00
2019-06-26T15:25:59.124Z,7.17
2019-06-26T15:28:30.460Z,7.70
2019-06-26T15:31:01.675Z,7.40
2019-06-26T15:33:36.490Z,7.40
2019-06-26T15:36:05.848Z,6.85
2019-06-26T15:38:37.073Z,7.70
2019-06-26T15:41:08.342Z,8.15
2019-06-26T15:43:39.604Z,7.08
2019-06-26T15:46:10.792Z,7.70
2019-06-26T15:48:42.020Z,8.18
2019-06-26T15:51:13.215Z,8.78
2019-06-26T15:53:44.416Z,8.53
2019-06-26T15:56:15.725Z,8.88
2019-06-26T15:58:47.012Z,8.50
2019-06-26T16:01:18.262Z,8.45
2019-06-26T16:03:49.500Z,8.10
2019-06-26T16:06:20.678Z,8.58
2019-06-26T16:08:52.838Z,9.23
2019-06-26T16:11:24.065Z,9.00
2019-06-26T16:13:55.333Z,8.23
2019-06-26T16:16:26.534Z,8.83
2019-06-26T16:19:05.559Z,8.73
2019-06-26T16:21:36.764Z,9.38
2019-06-26T16:24:07.936Z,10.00
2019-06-26T16:26:39.162Z,8.95
2019-06-26T16:29:10.338Z,9.20
2019-06-26T16:31:41.496Z,8.75
2019-06-26T16:34:12.730Z,8.73
2019-06-26T16:36:43.967Z,8.95
2019-06-26T16:39:15.340Z,8.98
2019-06-26T16:41:48.951Z,8.80
2019-06-26T16:44:19.700Z,8.00
2019-06-26T16:46:50.896Z,8.50
2019-06-26T16:49:22.209Z,7.80
2019-06-26T16:51:53.489Z,7.60
2019-06-26T16:54:24.834Z,8.25
2019-06-26T16:56:56.009Z,7.70
2019-06-26T16:59:28.272Z,6.90
2019-06-26T17:01:59.494Z,6.67
2019-06-26T17:04:30.872Z,9.68
2019-06-26T17:07:03.079Z,8.90
2019-06-26T17:09:34.256Z,6.72
2019-06-26T17:12:05.883Z,6.97
2019-06-26T17:14:37.581Z,6.62
2019-06-26T17:17:08.875Z,6.75
2019-06-26T17:19:40.022Z,6.97
2019-06-26T17:22:11.334Z,6.90
2019-06-26T17:24:42.542Z,6.78
2019-06-26T17:27:13.956Z,6.65
2019-06-26T17:29:45.413Z,7.00
2019-06-26T17:32:16.656Z,6.12
2019-06-26T17:34:48.077Z,6.47
2019-06-26T17:37:19.242Z,6.72
2019-06-26T17:39:50.611Z,6.60
2019-06-26T17:42:22.811Z,6.05
2019-06-26T17:44:54.072Z,7.70
2019-06-26T17:47:25.440Z,6.75
2019-06-26T17:49:56.711Z,5.47
2019-06-26T17:52:28.091Z,5.70
2019-06-26T17:54:59.332Z,5.42
2019-06-26T17:57:31.970Z,5.17
2019-06-26T18:00:05.547Z,5.45
2019-06-26T18:02:43.066Z,4.67
2019-06-26T18:05:14.875Z,6.12
2019-06-26T18:07:47.193Z,7.47
2019-06-26T18:10:18.893Z,6.22
2019-06-26T18:12:50.137Z,5.97
2019-06-26T18:15:21.376Z,6.30
2019-06-26T18:17:52.609Z,5.97
2019-06-26T18:20:24.045Z,5.83
2019-06-26T18:23:06.412Z,6.05
2019-06-26T18:25:28.208Z,5.37
2019-06-26T18:27:59.532Z,6.53
2019-06-26T18:30:30.851Z,13.00
2019-06-26T18:33:02.088Z,12.58
2019-06-26T18:35:34.451Z,8.58
2019-06-26T18:38:06.200Z,6.25
2019-06-26T18:40:37.720Z,5.58
2019-06-26T18:43:08.908Z,6.47
2019-06-26T18:45:40.138Z,5.30
2019-06-26T18:48:11.368Z,5.85
2019-06-26T18:50:42.631Z,6.35
2019-06-26T18:53:13.864Z,5.72
2019-06-26T18:55:46.249Z,6.10
2019-06-26T18:58:19.367Z,5.85
2019-06-26T19:00:51.674Z,6.03
2019-06-26T19:03:24.008Z,6.22
2019-06-26T19:05:57.152Z,6.60
2019-06-26T19:08:28.324Z,6.53
2019-06-26T19:10:59.571Z,6.12
2019-06-26T19:13:30.971Z,6.33
2019-06-26T19:16:04.522Z,6.75
2019-06-26T19:18:35.192Z,5.97
2019-06-26T19:21:06.380Z,6.92
2019-06-26T19:23:37.614Z,6.58
2019-06-26T19:26:08.800Z,7.22
2019-06-26T19:28:39.993Z,7.15
2019-06-26T19:31:11.594Z,7.17
2019-06-26T19:33:45.628Z,6.78
2019-06-26T19:36:15.921Z,6.70
2019-06-26T19:38:47.087Z,7.70
2019-06-26T19:41:19.489Z,6.20
2019-06-26T19:43:50.656Z,6.87
2019-06-26T19:46:21.991Z,6.22
2019-06-26T19:48:53.157Z,6.37
2019-06-26T19:51:24.345Z,6.53
2019-06-26T19:53:55.531Z,15.53
2019-06-26T19:56:26.839Z,18.30
2019-06-26T19:58:58.118Z,7.03
2019-06-26T20:01:29.251Z,21.05
2019-06-26T20:04:00.425Z,8.30
2019-06-26T20:06:31.717Z,6.28
2019-06-26T20:09:02.951Z,6.37
2019-06-26T20:11:34.557Z,6.37
2019-06-26T20:14:05.774Z,5.55
2019-06-26T20:16:36.926Z,6.03
2019-06-26T20:19:08.204Z,5.45
2019-06-26T20:21:39.465Z,5.42
2019-06-26T20:24:10.618Z,5.17
2019-06-26T20:26:42.809Z,4.62
2019-06-26T20:29:15.142Z,4.95
2019-06-26T20:31:48.103Z,4.60
2019-06-26T20:34:19.274Z,4.87
2019-06-26T20:36:50.537Z,4.40
2019-06-26T20:39:21.707Z,5.40
2019-06-26T20:41:53.046Z,4.60
2019-06-26T20:44:24.347Z,4.35
2019-06-26T20:46:55.552Z,4.10
2019-06-26T20:49:27.852Z,4.00
2019-06-26T20:51:59.116Z,4.12
2019-06-26T20:54:30.315Z,3.85
2019-06-26T20:57:01.499Z,4.25
2019-06-26T20:59:32.713Z,4.20
2019-06-26T21:02:03.994Z,4.00
2019-06-26T21:04:35.191Z,3.95
2019-06-26T21:07:06.771Z,4.30
2019-06-26T21:09:38.876Z,4.00
2019-06-26T21:12:10.089Z,4.28
2019-06-26T21:14:41.233Z,4.25
2019-06-26T21:17:15.570Z,4.45
2019-06-26T21:19:47.084Z,4.10
2019-06-26T21:22:18.489Z,4.15
2019-06-26T21:24:49.679Z,4.92
2019-06-26T21:27:20.840Z,5.13
2019-06-26T21:29:52.095Z,4.25
2019-06-26T21:32:23.244Z,3.75
2019-06-26T21:34:54.557Z,4.22
2019-06-26T21:37:25.771Z,4.40
2019-06-26T21:39:57.060Z,4.83
2019-06-26T21:42:28.233Z,4.30
2019-06-26T21:44:59.449Z,4.55
2019-06-26T21:47:30.755Z,4.47
2019-06-26T21:50:01.956Z,4.20
2019-06-26T21:52:33.237Z,4.22
2019-06-26T21:55:05.465Z,4.53
2019-06-26T21:57:54.480Z,4.42
2019-06-26T22:00:43.360Z,4.78
2019-06-26T22:03:32.370Z,4.37
2019-06-26T22:06:14.229Z,4.95
2019-06-26T22:08:47.306Z,4.97
2019-06-26T22:11:20.144Z,4.80
2019-06-26T22:13:51.613Z,4.25
2019-06-26T22:16:22.833Z,4.47
2019-06-26T22:18:54.306Z,4.83
2019-06-26T22:21:25.783Z,4.60
2019-06-26T22:23:57.925Z,4.35
2019-06-26T22:26:29.152Z,4.20
2019-06-26T22:29:00.317Z,4.37
2019-06-26T22:31:31.676Z,4.17
2019-06-26T22:34:02.920Z,4.37
2019-06-26T22:36:34.123Z,4.50
2019-06-26T22:39:05.808Z,5.22
2019-06-26T22:41:36.987Z,4.92
2019-06-26T22:44:09.199Z,4.20
2019-06-26T22:46:40.371Z,3.95
2019-06-26T22:49:11.541Z,4.78
2019-06-26T22:51:42.757Z,4.33
2019-06-26T22:54:14.021Z,4.05
2019-06-26T22:56:45.194Z,4.42
2019-06-26T22:59:16.448Z,4.40
2019-06-26T23:01:47.637Z,4.22
2019-06-26T23:04:18.895Z,4.62
2019-06-26T23:06:50.095Z,4.58
2019-06-26T23:09:21.262Z,4.90
2019-06-26T23:11:52.487Z,4.75
2019-06-26T23:14:23.648Z,5.12
2019-06-26T23:16:54.836Z,4.10
2019-06-26T23:19:25.989Z,4.33
2019-06-26T23:21:57.237Z,4.83
2019-06-26T23:24:28.399Z,4.83
2019-06-26T23:26:59.627Z,5.28
2019-06-26T23:29:30.898Z,4.60
2019-06-26T23:32:03.488Z,4.90
2019-06-26T23:34:34.844Z,5.12
2019-06-26T23:37:06.029Z,5.55
2019-06-26T23:39:37.315Z,4.95
2019-06-26T23:42:08.494Z,5.17
2019-06-26T23:44:39.790Z,5.42
2019-06-26T23:47:10.978Z,5.28
2019-06-26T23:49:42.221Z,5.33
2019-06-26T23:52:13.421Z,4.67
2019-06-26T23:54:44.566Z,4.90
2019-06-26T23:57:15.738Z,4.30
2019-06-26T23:59:46.930Z,4.45
